createdAt,value
2022-08-30T00:00:41.143Z,16.40
2022-08-30T00:03:11.196Z,16.37
2022-08-30T00:05:39.893Z,16.48
2022-08-30T00:08:08.118Z,16.53
2022-08-30T00:10:38.208Z,16.46
2022-08-30T00:13:07.784Z,16.48
2022-08-30T00:15:36.195Z,16.46
2022-08-30T00:18:04.169Z,16.48
2022-08-30T00:20:34.439Z,16.38
2022-08-30T00:23:03.230Z,16.42
2022-08-30T00:25:31.372Z,16.53
2022-08-30T00:28:00.699Z,16.58
2022-08-30T00:30:28.561Z,16.69
2022-08-30T00:32:56.454Z,16.66
2022-08-30T00:35:25.139Z,16.55
2022-08-30T00:37:53.079Z,16.43
2022-08-30T00:40:27.263Z,16.34
2022-08-30T00:42:59.303Z,16.25
2022-08-30T00:45:33.172Z,16.16
2022-08-30T00:48:01.973Z,16.07
2022-08-30T00:50:35.023Z,16.16
2022-08-30T00:53:06.794Z,16.13
2022-08-30T00:55:34.942Z,16.06
2022-08-30T00:58:09.889Z,16.01
2022-08-30T01:00:39.391Z,16.02
2022-08-30T01:03:09.285Z,15.99
2022-08-30T01:05:39.694Z,15.93
2022-08-30T01:08:07.730Z,15.88
2022-08-30T01:10:37.789Z,15.85
2022-08-30T01:13:06.392Z,15.96
2022-08-30T01:15:34.781Z,16.09
2022-08-30T01:18:06.887Z,16.18
2022-08-30T01:20:44.792Z,16.16
2022-08-30T01:23:16.847Z,16.26
2022-08-30T01:25:48.413Z,16.10
2022-08-30T01:28:20.957Z,15.99
2022-08-30T01:30:49.457Z,15.87
2022-08-30T01:33:20.053Z,15.74
2022-08-30T01:35:52.854Z,15.72
2022-08-30T01:38:25.810Z,15.66
2022-08-30T01:40:59.511Z,15.49
2022-08-30T01:43:28.931Z,15.67
2022-08-30T01:45:56.992Z,15.76
2022-08-30T01:48:30.865Z,15.83
2022-08-30T01:50:59.997Z,15.78
2022-08-30T01:53:29.681Z,15.66
2022-08-30T01:55:57.557Z,15.62
2022-08-30T01:58:25.766Z,15.60
2022-08-30T02:00:54.752Z,15.50
2022-08-30T02:03:23.029Z,15.46
2022-08-30T02:05:51.095Z,15.48
2022-08-30T02:08:18.995Z,15.46
2022-08-30T02:10:48.240Z,15.53
2022-08-30T02:13:16.219Z,15.36
2022-08-30T02:15:44.271Z,15.43
2022-08-30T02:18:12.199Z,15.50
2022-08-30T02:20:41.062Z,15.47
2022-08-30T02:23:09.179Z,15.44
2022-08-30T02:25:37.025Z,15.31
2022-08-30T02:28:07.276Z,15.37
2022-08-30T02:30:36.769Z,15.33
2022-08-30T02:33:05.383Z,15.26
2022-08-30T02:35:33.430Z,15.29
2022-08-30T02:38:01.402Z,15.32
2022-08-30T02:40:29.433Z,15.35
2022-08-30T02:42:57.545Z,15.43
2022-08-30T02:45:27.873Z,15.30
2022-08-30T02:47:56.592Z,15.14
2022-08-30T02:50:25.302Z,15.05
2022-08-30T02:52:53.389Z,15.01
2022-08-30T02:55:23.924Z,15.07
2022-08-30T02:57:51.823Z,15.09
2022-08-30T03:00:21.742Z,15.15
2022-08-30T03:02:51.041Z,15.22
2022-08-30T03:05:19.050Z,15.01
2022-08-30T03:07:47.589Z,14.97
2022-08-30T03:10:16.410Z,14.95
2022-08-30T03:12:44.692Z,15.15
2022-08-30T03:15:14.186Z,15.18
2022-08-30T03:17:42.643Z,15.24
2022-08-30T03:20:13.995Z,15.30
2022-08-30T03:22:42.162Z,15.25
2022-08-30T03:25:10.459Z,15.33
2022-08-30T03:27:38.682Z,15.33
2022-08-30T03:30:08.207Z,15.55
2022-08-30T03:32:36.860Z,15.37
2022-08-30T03:35:05.653Z,15.14
2022-08-30T03:37:35.686Z,15.20
2022-08-30T03:40:04.449Z,15.27
2022-08-30T03:42:34.732Z,15.39
2022-08-30T03:45:03.396Z,15.35
2022-08-30T03:47:32.039Z,15.28
2022-08-30T03:49:59.995Z,15.37
2022-08-30T03:52:28.260Z,15.13
2022-08-30T03:54:57.606Z,15.19
2022-08-30T03:57:25.709Z,15.31
2022-08-30T03:59:53.791Z,15.05
2022-08-30T04:02:21.972Z,15.09
2022-08-30T04:04:50.111Z,15.18
2022-08-30T04:07:19.187Z,14.96
2022-08-30T04:09:47.268Z,15.00
2022-08-30T04:12:18.398Z,15.13
2022-08-30T04:14:50.918Z,14.76
2022-08-30T04:17:18.954Z,14.95
2022-08-30T04:19:46.926Z,14.85
2022-08-30T04:22:14.932Z,14.74
2022-08-30T04:24:42.935Z,14.65
2022-08-30T04:27:11.932Z,14.67
2022-08-30T04:29:41.599Z,14.69
2022-08-30T04:32:09.976Z,14.96
2022-08-30T04:34:39.414Z,15.04
2022-08-30T04:37:13.666Z,15.26
2022-08-30T04:39:47.556Z,15.21
2022-08-30T04:42:23.139Z,15.36
2022-08-30T04:45:06.733Z,15.46
2022-08-30T04:47:39.892Z,15.39
2022-08-30T04:50:18.170Z,15.52
2022-08-30T04:52:48.314Z,15.54
2022-08-30T04:55:20.176Z,15.72
2022-08-30T04:57:50.396Z,15.84
2022-08-30T05:00:22.519Z,15.75
2022-08-30T05:02:52.193Z,15.92
2022-08-30T05:05:48.840Z,15.98
2022-08-30T05:08:24.482Z,16.08
2022-08-30T05:10:54.410Z,16.15
2022-08-30T05:13:35.149Z,16.05
2022-08-30T05:16:08.338Z,16.18
2022-08-30T05:18:44.202Z,16.20
2022-08-30T05:21:16.667Z,16.29
2022-08-30T05:23:46.203Z,16.22
2022-08-30T05:26:21.482Z,16.38
2022-08-30T05:28:50.047Z,16.46
2022-08-30T05:31:21.529Z,16.51
2022-08-30T05:33:51.977Z,16.48
2022-08-30T05:36:22.653Z,16.63
2022-08-30T05:38:51.120Z,16.49
2022-08-30T05:41:20.497Z,16.73
2022-08-30T05:43:49.188Z,16.70
2022-08-30T05:46:22.034Z,16.80
2022-08-30T05:48:50.875Z,16.80
2022-08-30T05:51:21.027Z,16.91
2022-08-30T05:53:51.329Z,16.98
2022-08-30T05:56:25.218Z,17.03
2022-08-30T05:58:55.390Z,17.20
2022-08-30T06:01:29.465Z,17.30
2022-08-30T06:04:03.936Z,17.23
2022-08-30T06:06:35.706Z,17.17
2022-08-30T06:09:06.054Z,17.38
2022-08-30T06:11:35.333Z,17.51
2022-08-30T06:14:04.254Z,17.68
2022-08-30T06:16:35.618Z,17.76
2022-08-30T06:19:03.533Z,17.84
2022-08-30T06:21:34.483Z,17.83
2022-08-30T06:24:04.791Z,17.79
2022-08-30T06:26:33.694Z,17.82
2022-08-30T06:29:01.665Z,18.00
2022-08-30T06:31:29.665Z,18.15
2022-08-30T06:33:59.031Z,18.30
2022-08-30T06:36:27.368Z,18.39
2022-08-30T06:38:57.591Z,18.52
2022-08-30T06:41:27.765Z,18.63
2022-08-30T06:43:56.615Z,18.73
2022-08-30T06:46:27.330Z,18.86
2022-08-30T06:48:56.744Z,19.06
2022-08-30T06:51:28.343Z,19.26
2022-08-30T06:53:58.016Z,19.41
2022-08-30T06:56:27.634Z,19.31
2022-08-30T06:58:55.909Z,19.46
2022-08-30T07:01:26.057Z,19.59
2022-08-30T07:03:55.451Z,19.54
2022-08-30T07:06:26.253Z,19.59
2022-08-30T07:08:56.086Z,19.82
2022-08-30T07:11:35.649Z,19.98
2022-08-30T07:14:07.765Z,20.04
2022-08-30T07:16:36.193Z,19.99
2022-08-30T07:19:04.762Z,20.18
2022-08-30T07:21:37.271Z,20.36
2022-08-30T07:24:08.873Z,20.32
2022-08-30T07:26:39.554Z,20.33
2022-08-30T07:29:07.879Z,20.47
2022-08-30T07:31:36.172Z,20.41
2022-08-30T07:34:04.465Z,20.45
2022-08-30T07:36:34.195Z,20.40
2022-08-30T07:39:02.066Z,20.77
2022-08-30T07:41:34.166Z,20.97
2022-08-30T07:44:03.075Z,21.35
2022-08-30T07:46:31.035Z,21.53
2022-08-30T07:49:01.843Z,21.72
2022-08-30T07:51:32.842Z,21.45
2022-08-30T07:54:02.331Z,21.55
2022-08-30T07:56:30.794Z,21.66
2022-08-30T07:58:58.800Z,21.62
2022-08-30T08:01:26.761Z,21.61
2022-08-30T08:03:54.695Z,21.72
2022-08-30T08:06:24.257Z,21.80
2022-08-30T08:08:54.375Z,21.87
2022-08-30T08:11:28.455Z,22.09
2022-08-30T08:13:59.801Z,22.38
2022-08-30T08:16:31.125Z,22.19
2022-08-30T08:18:59.291Z,22.39
2022-08-30T08:21:28.077Z,22.85
2022-08-30T08:23:56.544Z,22.88
2022-08-30T08:26:25.827Z,22.82
2022-08-30T08:28:53.819Z,22.62
2022-08-30T08:31:27.104Z,22.83
2022-08-30T08:33:58.699Z,22.79
2022-08-30T08:36:27.121Z,22.92
2022-08-30T08:38:55.338Z,22.73
2022-08-30T08:41:37.930Z,22.78
2022-08-30T08:44:09.713Z,22.73
2022-08-30T08:46:45.610Z,23.16
2022-08-30T08:49:14.121Z,23.24
2022-08-30T08:51:59.827Z,23.42
2022-08-30T08:54:34.262Z,23.20
2022-08-30T08:57:03.711Z,23.48
2022-08-30T08:59:31.995Z,23.46
2022-08-30T09:02:03.173Z,23.32
2022-08-30T09:04:35.405Z,23.27
2022-08-30T09:07:06.646Z,23.37
2022-08-30T09:09:37.336Z,23.65
2022-08-30T09:12:08.334Z,23.66
2022-08-30T09:14:44.289Z,23.69
2022-08-30T09:17:15.335Z,23.78
2022-08-30T09:19:46.101Z,23.74
2022-08-30T09:22:26.320Z,23.77
2022-08-30T09:24:56.682Z,24.14
2022-08-30T09:27:30.253Z,24.11
2022-08-30T09:30:01.995Z,24.21
2022-08-30T09:32:33.841Z,24.07
2022-08-30T09:35:01.729Z,24.12
2022-08-30T09:37:46.775Z,24.34
2022-08-30T09:40:23.255Z,24.28
2022-08-30T09:43:08.395Z,24.41
2022-08-30T09:45:39.683Z,24.50
2022-08-30T09:48:32.939Z,24.64
2022-08-30T09:51:21.607Z,24.50
2022-08-30T09:54:17.038Z,24.46
2022-08-30T09:56:55.122Z,24.61
2022-08-30T09:59:37.908Z,24.79
2022-08-30T10:02:22.471Z,24.95
2022-08-30T10:05:00.834Z,25.03
2022-08-30T10:07:34.760Z,24.97
2022-08-30T10:10:12.112Z,25.05
2022-08-30T10:12:50.615Z,25.30
2022-08-30T10:15:25.511Z,25.39
2022-08-30T10:18:02.686Z,25.54
2022-08-30T10:20:34.587Z,25.66
2022-08-30T10:23:09.308Z,25.76
2022-08-30T10:25:41.456Z,25.78
2022-08-30T10:28:15.710Z,25.91
2022-08-30T10:30:49.147Z,26.08
2022-08-30T10:33:25.435Z,26.05
2022-08-30T10:35:57.864Z,26.02
2022-08-30T10:38:30.478Z,26.16
2022-08-30T10:41:17.233Z,26.18
2022-08-30T10:43:54.088Z,26.15
2022-08-30T10:46:30.862Z,26.16
2022-08-30T10:49:02.177Z,26.43
2022-08-30T10:51:36.975Z,26.43
2022-08-30T10:54:11.093Z,26.66
2022-08-30T10:56:41.946Z,26.61
2022-08-30T10:59:11.955Z,26.65
2022-08-30T11:02:17.708Z,26.48
2022-08-30T11:05:13.570Z,26.76
2022-08-30T11:07:52.138Z,26.89
2022-08-30T11:10:34.952Z,27.03
2022-08-30T11:13:06.444Z,27.15
2022-08-30T11:15:37.687Z,27.08
2022-08-30T11:18:13.969Z,27.03
2022-08-30T11:20:46.909Z,27.11
2022-08-30T11:23:25.320Z,27.02
2022-08-30T11:25:57.514Z,27.17
2022-08-30T11:29:01.203Z,27.53
2022-08-30T11:31:35.128Z,27.77
2022-08-30T11:34:05.061Z,27.75
2022-08-30T11:37:09.747Z,27.71
2022-08-30T11:39:54.844Z,27.67
2022-08-30T11:42:42.149Z,27.65
2022-08-30T11:45:45.668Z,27.98
2022-08-30T11:48:47.045Z,28.21
2022-08-30T11:52:23.808Z,28.20
2022-08-30T11:54:54.524Z,28.06
2022-08-30T11:57:28.927Z,28.01
2022-08-30T12:00:06.780Z,28.26
2022-08-30T12:02:48.869Z,28.13
2022-08-30T12:05:49.377Z,28.37
2022-08-30T12:09:02.658Z,28.51
2022-08-30T12:12:03.100Z,28.62
2022-08-30T12:14:44.587Z,28.58
2022-08-30T12:17:36.667Z,28.58
2022-08-30T12:20:06.951Z,28.68
2022-08-30T12:22:37.757Z,28.72
2022-08-30T12:25:18.333Z,28.78
2022-08-30T12:27:47.845Z,28.36
2022-08-30T12:30:15.990Z,28.45
2022-08-30T12:32:47.582Z,28.91
2022-08-30T12:35:22.512Z,28.56
2022-08-30T12:37:59.033Z,28.51
2022-08-30T12:40:27.328Z,28.58
2022-08-30T12:42:58.738Z,28.65
2022-08-30T12:45:30.125Z,28.79
2022-08-30T12:48:00.509Z,28.99
2022-08-30T12:50:31.610Z,28.99
2022-08-30T12:53:02.880Z,29.11
2022-08-30T12:55:34.350Z,29.22
2022-08-30T12:58:07.405Z,29.06
2022-08-30T13:00:37.758Z,29.27
2022-08-30T13:03:16.301Z,29.32
2022-08-30T13:05:52.824Z,29.16
2022-08-30T13:08:25.309Z,29.29
2022-08-30T13:10:58.110Z,29.51
2022-08-30T13:13:38.529Z,29.64
2022-08-30T13:16:13.055Z,29.80
2022-08-30T13:18:41.395Z,29.90
2022-08-30T13:21:22.857Z,29.98
2022-08-30T13:23:58.161Z,29.78
2022-08-30T13:26:27.487Z,30.10
2022-08-30T13:28:58.974Z,30.32
2022-08-30T13:31:29.292Z,30.10
2022-08-30T13:34:02.141Z,30.09
2022-08-30T13:36:32.263Z,30.12
2022-08-30T13:39:01.809Z,30.01
2022-08-30T13:41:34.131Z,30.06
2022-08-30T13:44:13.553Z,30.47
2022-08-30T13:46:51.024Z,30.71
2022-08-30T13:52:20.949Z,30.82
2022-08-30T13:54:50.297Z,30.95
2022-08-30T14:00:17.275Z,31.21
2022-08-30T14:02:50.370Z,31.17
2022-08-30T14:11:02.205Z,33.54
2022-08-30T14:13:30.798Z,33.38
2022-08-30T14:18:50.567Z,34.01
2022-08-30T14:21:21.519Z,34.29
2022-08-30T14:23:53.276Z,33.47
2022-08-30T14:26:22.961Z,33.58
2022-08-30T14:28:52.289Z,34.75
2022-08-30T14:31:22.029Z,34.51
2022-08-30T14:33:50.104Z,37.75
2022-08-30T14:36:18.565Z,39.92
2022-08-30T14:38:46.697Z,40.46
2022-08-30T14:41:16.536Z,40.79
2022-08-30T14:43:44.837Z,41.90
2022-08-30T14:46:12.905Z,43.60
2022-08-30T14:48:43.038Z,45.07
2022-08-30T14:51:16.699Z,44.99
2022-08-30T14:53:44.974Z,43.45
2022-08-30T14:56:19.499Z,44.71
2022-08-30T14:58:49.547Z,43.96
2022-08-30T15:01:17.567Z,42.07
2022-08-30T15:03:47.396Z,40.93
2022-08-30T15:06:15.984Z,41.39
2022-08-30T15:08:47.754Z,40.99
2022-08-30T15:11:20.167Z,40.60
2022-08-30T15:13:48.572Z,40.12
2022-08-30T15:16:19.755Z,40.66
2022-08-30T15:18:50.124Z,40.58
2022-08-30T15:21:24.876Z,41.86
2022-08-30T15:23:53.805Z,41.40
2022-08-30T15:26:22.198Z,39.98
2022-08-30T15:28:51.837Z,36.88
2022-08-30T15:31:20.806Z,36.15
2022-08-30T15:33:52.416Z,34.69
2022-08-30T15:36:20.863Z,33.11
2022-08-30T15:38:48.893Z,32.55
2022-08-30T15:41:17.020Z,31.97
2022-08-30T15:43:44.943Z,31.18
2022-08-30T15:46:19.303Z,30.90
2022-08-30T15:48:47.810Z,31.09
2022-08-30T15:51:17.841Z,31.20
2022-08-30T15:53:46.865Z,31.36
2022-08-30T15:56:15.310Z,30.95
2022-08-30T15:58:53.268Z,31.14
2022-08-30T16:01:30.223Z,30.63
2022-08-30T16:03:58.915Z,30.59
2022-08-30T16:06:30.706Z,30.18
2022-08-30T16:08:59.485Z,30.01
2022-08-30T16:11:27.839Z,30.04
2022-08-30T16:13:58.912Z,29.83
2022-08-30T16:16:27.478Z,29.85
2022-08-30T16:18:55.969Z,29.48
2022-08-30T16:21:26.251Z,29.42
2022-08-30T16:23:58.157Z,29.39
2022-08-30T16:26:27.263Z,29.15
2022-08-30T16:28:56.089Z,29.06
2022-08-30T16:31:26.046Z,28.87
2022-08-30T16:33:55.524Z,28.68
2022-08-30T16:36:30.646Z,28.79
2022-08-30T16:39:00.859Z,28.75
2022-08-30T16:41:29.204Z,28.68
2022-08-30T16:44:00.554Z,28.56
2022-08-30T16:46:28.566Z,28.65
2022-08-30T16:48:58.307Z,28.55
2022-08-30T16:51:28.020Z,28.70
2022-08-30T16:53:56.950Z,28.66
2022-08-30T16:56:28.057Z,28.61
2022-08-30T16:59:01.825Z,28.51
2022-08-30T17:01:32.040Z,28.23
2022-08-30T17:04:00.861Z,28.36
2022-08-30T17:06:28.956Z,28.38
2022-08-30T17:08:57.151Z,28.49
2022-08-30T17:11:27.063Z,28.51
2022-08-30T17:13:55.150Z,28.58
2022-08-30T17:16:28.056Z,28.55
2022-08-30T17:18:59.477Z,28.36
2022-08-30T17:21:29.275Z,28.41
2022-08-30T17:24:01.743Z,28.21
2022-08-30T17:26:32.996Z,28.17
2022-08-30T17:29:01.335Z,28.23
2022-08-30T17:31:30.898Z,28.28
2022-08-30T17:34:03.232Z,28.11
2022-08-30T17:36:31.946Z,28.08
2022-08-30T17:39:00.015Z,27.97
2022-08-30T17:41:28.797Z,28.01
2022-08-30T17:43:58.102Z,27.91
2022-08-30T17:46:26.140Z,27.64
2022-08-30T17:49:01.027Z,27.41
2022-08-30T17:51:30.049Z,27.34
2022-08-30T17:53:58.479Z,27.04
2022-08-30T17:56:30.398Z,26.98
2022-08-30T17:59:07.921Z,26.76
2022-08-30T18:01:37.804Z,26.69
2022-08-30T18:04:06.616Z,26.67
2022-08-30T18:06:35.168Z,26.56
2022-08-30T18:09:03.206Z,26.46
2022-08-30T18:11:31.153Z,26.23
2022-08-30T18:13:59.047Z,26.06
2022-08-30T18:16:28.435Z,26.13
2022-08-30T18:18:57.182Z,26.07
2022-08-30T18:21:25.923Z,25.95
2022-08-30T18:23:56.542Z,25.84
2022-08-30T18:26:24.849Z,25.74
2022-08-30T18:28:53.321Z,25.52
2022-08-30T18:31:21.504Z,25.41
2022-08-30T18:33:50.913Z,25.38
2022-08-30T18:36:19.187Z,25.42
2022-08-30T18:38:47.202Z,25.47
2022-08-30T18:41:15.601Z,25.54
2022-08-30T18:43:44.821Z,25.39
2022-08-30T18:46:14.844Z,25.26
2022-08-30T18:48:43.271Z,25.22
2022-08-30T18:51:14.264Z,25.10
2022-08-30T18:53:42.818Z,25.05
2022-08-30T18:56:12.631Z,24.90
2022-08-30T18:58:44.520Z,24.79
2022-08-30T19:01:13.053Z,24.64
2022-08-30T19:03:43.677Z,24.59
2022-08-30T19:06:13.983Z,24.49
2022-08-30T19:08:45.746Z,24.50
2022-08-30T19:11:14.121Z,24.50
2022-08-30T19:13:42.062Z,24.55
2022-08-30T19:16:12.049Z,24.51
2022-08-30T19:18:41.624Z,24.41
2022-08-30T19:21:13.578Z,24.31
2022-08-30T19:23:43.455Z,24.25
2022-08-30T19:26:11.343Z,24.21
2022-08-30T19:28:39.395Z,24.05
2022-08-30T19:31:07.709Z,23.97
2022-08-30T19:33:36.076Z,23.95
2022-08-30T19:36:06.785Z,23.84
2022-08-30T19:38:35.644Z,23.61
2022-08-30T19:41:05.498Z,23.45
2022-08-30T19:43:33.455Z,23.45
2022-08-30T19:46:01.770Z,23.34
2022-08-30T19:48:32.716Z,23.45
2022-08-30T19:51:06.584Z,23.37
2022-08-30T19:53:35.149Z,23.27
2022-08-30T19:56:05.352Z,23.25
2022-08-30T19:58:33.228Z,23.20
2022-08-30T20:01:10.997Z,23.12
2022-08-30T20:03:41.482Z,23.15
2022-08-30T20:06:09.764Z,23.16
2022-08-30T20:08:38.184Z,23.08
2022-08-30T20:11:07.558Z,23.03
2022-08-30T20:13:36.940Z,22.89
2022-08-30T20:16:06.014Z,22.99
2022-08-30T20:18:33.970Z,22.90
2022-08-30T20:21:01.862Z,22.97
2022-08-30T20:23:30.521Z,22.92
2022-08-30T20:26:05.463Z,22.89
2022-08-30T20:28:34.711Z,22.70
2022-08-30T20:31:05.707Z,22.49
2022-08-30T20:33:36.391Z,22.37
2022-08-30T20:36:05.321Z,22.21
2022-08-30T20:38:33.243Z,22.10
2022-08-30T20:41:02.661Z,22.11
2022-08-30T20:43:31.550Z,22.02
2022-08-30T20:46:00.802Z,21.97
2022-08-30T20:48:28.830Z,21.98
2022-08-30T20:50:56.813Z,22.14
2022-08-30T20:53:25.079Z,22.01
2022-08-30T20:55:52.937Z,21.95
2022-08-30T20:58:20.829Z,21.91
2022-08-30T21:00:51.354Z,21.92
2022-08-30T21:03:27.681Z,21.90
2022-08-30T21:05:56.388Z,21.86
2022-08-30T21:08:24.964Z,21.86
2022-08-30T21:10:53.447Z,21.97
2022-08-30T21:13:21.850Z,21.98
2022-08-30T21:15:52.485Z,21.77
2022-08-30T21:18:22.094Z,21.64
2022-08-30T21:20:50.236Z,21.61
2022-08-30T21:23:18.149Z,21.66
2022-08-30T21:25:46.072Z,21.47
2022-08-30T21:28:13.970Z,21.41
2022-08-30T21:30:45.121Z,21.42
2022-08-30T21:33:12.947Z,21.39
2022-08-30T21:35:59.860Z,21.33
2022-08-30T21:38:27.683Z,21.35
2022-08-30T21:40:55.542Z,21.35
2022-08-30T21:43:23.458Z,21.31
2022-08-30T21:45:53.513Z,21.26
2022-08-30T21:48:21.511Z,21.30
2022-08-30T21:50:50.778Z,21.29
2022-08-30T21:53:19.248Z,21.36
2022-08-30T21:55:47.993Z,21.34
2022-08-30T21:58:16.252Z,21.36
2022-08-30T22:00:44.162Z,21.38
2022-08-30T22:03:12.429Z,21.33
2022-08-30T22:05:40.805Z,21.27
2022-08-30T22:08:10.097Z,21.14
2022-08-30T22:10:37.996Z,21.14
2022-08-30T22:13:10.015Z,21.00
2022-08-30T22:15:38.576Z,20.99
2022-08-30T22:18:07.395Z,21.03
2022-08-30T22:20:35.737Z,20.97
2022-08-30T22:23:04.143Z,20.97
2022-08-30T22:25:33.650Z,21.12
2022-08-30T22:28:01.536Z,21.09
2022-08-30T22:30:32.489Z,21.00
2022-08-30T22:33:00.370Z,20.96
2022-08-30T22:35:28.660Z,20.93
2022-08-30T22:37:56.542Z,21.02
2022-08-30T22:40:24.449Z,21.10
2022-08-30T22:42:53.800Z,21.00
2022-08-30T22:45:21.835Z,20.93
2022-08-30T22:47:49.862Z,20.76
2022-08-30T22:50:17.900Z,20.85
2022-08-30T22:52:45.909Z,20.88
2022-08-30T22:55:13.862Z,20.96
2022-08-30T22:57:42.493Z,20.91
2022-08-30T23:00:16.064Z,20.86
2022-08-30T23:02:44.156Z,20.75
2022-08-30T23:05:13.116Z,20.79
2022-08-30T23:07:41.513Z,20.79
2022-08-30T23:10:11.404Z,20.82
2022-08-30T23:12:39.459Z,20.79
2022-08-30T23:15:10.235Z,20.82
2022-08-30T23:20:09.580Z,20.81
2022-08-30T23:22:40.238Z,20.60
2022-08-30T23:25:26.512Z,20.61
2022-08-30T23:28:20.819Z,20.64
2022-08-30T23:31:06.819Z,20.53
2022-08-30T23:33:53.670Z,20.47
2022-08-30T23:36:38.930Z,20.44
2022-08-30T23:39:24.174Z,20.42
2022-08-30T23:42:09.362Z,20.50
2022-08-30T23:44:54.677Z,20.42
2022-08-30T23:47:39.977Z,20.52
2022-08-30T23:50:27.292Z,20.41
2022-08-30T23:53:12.655Z,20.49
2022-08-30T23:55:58.953Z,20.55
2022-08-30T23:58:44.282Z,20.47
